Agios Panteleimon — SX7669 — position and weather

sailwx.info

Track history (hours):
 
Tides and Currents Weather Stations Pressure Air Temp Water Temp Dewpoint Dewpoint Depression Visibility Wind Speed Wind Dir Waves Ship Positions

Agios Panteleimon

Last reported at 2017-Nov-23 13:24 UTC. Time now 2017-Nov-23 15:08 UTC.
Position N 40°46' E 024°35'.

Length 58 m; draft 2.3 m.

Type: Ship. MMSI: 237033700.

Date/timePositionNaut miles runAvg speedWind from/ knotsBaromVisibWave heightAir tempDewpointWater temp
2017-Nov-23 13:24N 40°46' E 024°35'4 9.4
2017-Nov-23 13:01N 40°48' E 024°32'510.1
2017-Nov-23 12:31N 40°52' E 024°28'4 8.3
2017-Nov-23 12:00N 40°56' E 024°25'1 1.3
2017-Nov-23 11:30N 40°55' E 024°24'510.5
2017-Nov-23 11:01N 40°51' E 024°28'510.6
2017-Nov-23 10:31N 40°47' E 024°33'2 4.1
2017-Nov-23 10:00N 40°46' E 024°35'0 0.0
2017-Nov-23 09:31N 40°46' E 024°35'0 0.0
2017-Nov-23 09:01N 40°46' E 024°35'1 2.2
2017-Nov-23 08:29N 40°47' E 024°34'510.3
2017-Nov-23 08:01N 40°50' E 024°30'510.4
2017-Nov-23 07:31N 40°54' E 024°26'2 3.2
2017-Nov-23 07:01N 40°56' E 024°25'2 4.1
2017-Nov-23 06:31N 40°54' E 024°26'510.6
2017-Nov-23 06:01N 40°50' E 024°30'510.5
2017-Nov-23 05:31N 40°46' E 024°35'0 0.6
2017-Nov-23 05:01N 40°46' E 024°35'  
2017-Nov-18 13:44N 40°46' E 024°35'2 8.4
2017-Nov-18 13:30N 40°47' E 024°36'510.4
2017-Nov-18 13:00N 40°51' E 024°40'2 3.0
2017-Nov-18 12:30N 40°51' E 024°42'2 4.4
2017-Nov-18 12:00N 40°50' E 024°40'5 9.6
2017-Nov-18 11:30N 40°47' E 024°35'1 2.9
2017-Nov-18 11:00N 40°46' E 024°35'  
Track history (hours):
 
Tides and Currents Weather Stations Pressure Air Temp Water Temp Dewpoint Dewpoint Depression Visibility Wind Speed Wind Dir Waves Ship Positions

Agios Panteleimon

Last reported at 2017-Nov-23 13:24 UTC. Time now 2017-Nov-23 15:08 UTC.
Position N 40°46' E 024°35'.

Length 58 m; draft 2.3 m.

Type: Ship. MMSI: 237033700.

Date/timePositionNaut miles runAvg speedWind from/ knotsBaromVisibWave heightAir tempDewpointWater temp
2017-Nov-23 13:24N 40°46' E 024°35'4 9.4
2017-Nov-23 13:01N 40°48' E 024°32'510.1
2017-Nov-23 12:31N 40°52' E 024°28'4 8.3
2017-Nov-23 12:00N 40°56' E 024°25'1 1.3
2017-Nov-23 11:30N 40°55' E 024°24'510.5
2017-Nov-23 11:01N 40°51' E 024°28'510.6
2017-Nov-23 10:31N 40°47' E 024°33'2 4.1
2017-Nov-23 10:00N 40°46' E 024°35'0 0.0
2017-Nov-23 09:31N 40°46' E 024°35'0 0.0
2017-Nov-23 09:01N 40°46' E 024°35'1 2.2
2017-Nov-23 08:29N 40°47' E 024°34'510.3
2017-Nov-23 08:01N 40°50' E 024°30'510.4
2017-Nov-23 07:31N 40°54' E 024°26'2 3.2
2017-Nov-23 07:01N 40°56' E 024°25'2 4.1
2017-Nov-23 06:31N 40°54' E 024°26'510.6
2017-Nov-23 06:01N 40°50' E 024°30'510.5
2017-Nov-23 05:31N 40°46' E 024°35'0 0.6
2017-Nov-23 05:01N 40°46' E 024°35'  
2017-Nov-18 13:44N 40°46' E 024°35'2 8.4
2017-Nov-18 13:30N 40°47' E 024°36'510.4
2017-Nov-18 13:00N 40°51' E 024°40'2 3.0
2017-Nov-18 12:30N 40°51' E 024°42'2 4.4
2017-Nov-18 12:00N 40°50' E 024°40'5 9.6
2017-Nov-18 11:30N 40°47' E 024°35'1 2.9
2017-Nov-18 11:00N 40°46' E 024°35'  

Dump ship's entire track history